createdAt,value
2022-12-06T00:01:35.615Z,0.80
2022-12-06T00:04:03.080Z,0.55
2022-12-06T00:06:30.764Z,0.40
2022-12-06T00:08:57.676Z,0.40
2022-12-06T00:11:28.217Z,0.52
2022-12-06T00:14:05.615Z,0.40
2022-12-06T00:16:32.468Z,0.38
2022-12-06T00:18:58.959Z,0.50
2022-12-06T00:21:28.251Z,0.50
2022-12-06T00:23:56.222Z,0.40
2022-12-06T00:26:23.115Z,0.38
2022-12-06T00:28:51.876Z,0.50
2022-12-06T00:31:19.753Z,0.60
2022-12-06T00:33:46.188Z,0.50
2022-12-06T00:36:14.326Z,0.50
2022-12-06T00:38:40.711Z,0.40
2022-12-06T00:41:09.757Z,0.38
2022-12-06T00:43:36.651Z,0.40
2022-12-06T00:46:04.371Z,0.30
2022-12-06T00:48:31.024Z,0.30
2022-12-06T00:50:57.368Z,0.40
2022-12-06T00:53:24.292Z,0.65
2022-12-06T00:55:50.878Z,0.50
2022-12-06T00:58:17.312Z,0.43
2022-12-06T01:00:43.783Z,0.40
2022-12-06T01:03:10.492Z,0.50
2022-12-06T01:05:41.076Z,0.40
2022-12-06T01:08:07.726Z,0.40
2022-12-06T01:10:34.111Z,0.50
2022-12-06T01:13:00.468Z,0.30
2022-12-06T01:15:26.825Z,0.40
2022-12-06T01:17:53.103Z,0.30
2022-12-06T01:20:19.464Z,0.40
2022-12-06T01:22:45.786Z,0.20
2022-12-06T01:25:12.136Z,0.30
2022-12-06T01:27:38.431Z,0.30
2022-12-06T01:30:05.359Z,0.40
2022-12-06T01:32:31.695Z,0.50
2022-12-06T01:34:57.971Z,0.40
2022-12-06T01:37:24.568Z,0.30
2022-12-06T01:39:50.866Z,0.40
2022-12-06T01:42:17.301Z,0.30
2022-12-06T01:44:48.760Z,0.30
2022-12-06T01:47:18.555Z,0.30
2022-12-06T01:49:49.396Z,0.35
2022-12-06T01:52:16.796Z,0.28
2022-12-06T01:54:43.216Z,0.30
2022-12-06T01:57:10.897Z,0.30
2022-12-06T01:59:37.591Z,0.30
2022-12-06T02:02:04.349Z,0.20
2022-12-06T02:04:31.332Z,0.30
2022-12-06T02:06:58.835Z,0.60
2022-12-06T02:09:26.748Z,0.40
2022-12-06T02:11:53.150Z,0.50
2022-12-06T02:14:21.356Z,0.60
2022-12-06T02:17:06.556Z,0.50
2022-12-06T02:19:53.095Z,1.02
2022-12-06T02:22:19.544Z,0.90
2022-12-06T02:25:04.311Z,0.90
2022-12-06T02:27:30.655Z,1.83
2022-12-06T02:30:12.213Z,1.30
2022-12-06T02:32:54.896Z,1.20
2022-12-06T02:35:40.226Z,0.80
2022-12-06T02:38:13.488Z,0.80
2022-12-06T02:40:42.735Z,0.63
2022-12-06T02:43:12.943Z,0.50
2022-12-06T02:45:41.955Z,0.93
2022-12-06T02:48:09.063Z,0.63
2022-12-06T02:50:37.536Z,0.65
2022-12-06T02:53:06.359Z,0.90
2022-12-06T02:55:33.233Z,1.30
2022-12-06T02:57:59.556Z,1.08
2022-12-06T03:00:34.162Z,1.30
2022-12-06T03:03:19.174Z,1.75
2022-12-06T03:06:05.780Z,1.48
2022-12-06T03:08:47.245Z,1.70
2022-12-06T03:11:13.940Z,1.90
2022-12-06T03:13:43.382Z,1.55
2022-12-06T03:16:16.448Z,1.52
2022-12-06T03:19:03.067Z,1.73
2022-12-06T03:21:32.546Z,1.30
2022-12-06T03:23:59.512Z,1.60
2022-12-06T03:26:28.526Z,1.45
2022-12-06T03:28:56.787Z,1.23
2022-12-06T03:31:25.069Z,1.30
2022-12-06T03:33:55.416Z,1.00
2022-12-06T03:36:22.560Z,1.02
2022-12-06T03:38:56.168Z,0.80
2022-12-06T03:41:24.956Z,0.95
2022-12-06T03:43:51.516Z,1.35
2022-12-06T03:46:20.331Z,1.25
2022-12-06T03:48:53.184Z,1.20
2022-12-06T03:51:25.624Z,1.10
2022-12-06T03:53:53.483Z,0.85
2022-12-06T03:56:20.713Z,1.20
2022-12-06T03:58:47.086Z,1.35
2022-12-06T04:01:13.423Z,0.80
2022-12-06T04:03:40.088Z,0.98
2022-12-06T04:06:07.043Z,0.90
2022-12-06T04:08:33.762Z,1.30
2022-12-06T04:11:00.289Z,1.20
2022-12-06T04:13:26.681Z,1.40
2022-12-06T04:15:57.509Z,1.27
2022-12-06T04:18:24.284Z,1.80
2022-12-06T04:21:15.538Z,1.80
2022-12-06T04:23:43.079Z,1.95
2022-12-06T04:26:10.750Z,1.70
2022-12-06T04:28:55.840Z,1.60
2022-12-06T04:31:41.003Z,1.30
2022-12-06T04:34:25.871Z,1.40
2022-12-06T04:37:10.844Z,1.70
2022-12-06T04:39:37.291Z,1.20
2022-12-06T04:42:22.576Z,1.20
2022-12-06T04:44:49.160Z,1.48
2022-12-06T04:47:15.796Z,1.20
2022-12-06T04:49:42.130Z,1.10
2022-12-06T04:52:09.034Z,1.60
2022-12-06T04:54:35.791Z,1.23
2022-12-06T04:57:02.351Z,1.70
2022-12-06T04:59:28.846Z,1.55
2022-12-06T05:01:55.800Z,1.67
2022-12-06T05:04:22.416Z,1.35
2022-12-06T05:06:48.964Z,1.20
2022-12-06T05:09:15.596Z,0.82
2022-12-06T05:11:42.563Z,1.35
2022-12-06T05:14:08.950Z,1.60
2022-12-06T05:16:35.323Z,1.38
2022-12-06T05:19:01.849Z,1.77
2022-12-06T05:21:28.346Z,1.88
2022-12-06T05:23:55.258Z,1.70
2022-12-06T05:26:24.245Z,1.23
2022-12-06T05:28:51.016Z,1.38
2022-12-06T05:31:17.837Z,0.70
2022-12-06T05:33:44.622Z,0.90
2022-12-06T05:36:12.252Z,0.80
2022-12-06T05:38:38.722Z,0.75
2022-12-06T05:41:05.478Z,0.82
2022-12-06T05:43:31.931Z,0.80
2022-12-06T05:45:58.355Z,1.00
2022-12-06T05:48:25.037Z,1.10
2022-12-06T05:50:51.673Z,0.93
2022-12-06T05:53:17.985Z,0.90
2022-12-06T05:55:44.364Z,0.90
2022-12-06T05:58:11.109Z,0.85
2022-12-06T06:00:37.484Z,0.70
2022-12-06T06:03:04.097Z,1.08
2022-12-06T06:05:31.100Z,0.80
2022-12-06T06:07:57.424Z,1.13
2022-12-06T06:10:24.127Z,1.38
2022-12-06T06:12:50.965Z,1.10
2022-12-06T06:15:17.710Z,0.90
2022-12-06T06:17:44.100Z,0.88
2022-12-06T06:20:13.861Z,0.90
2022-12-06T06:22:41.812Z,0.80
2022-12-06T06:25:08.355Z,1.10
2022-12-06T06:27:37.137Z,0.80
2022-12-06T06:30:08.295Z,0.90
2022-12-06T06:32:35.184Z,0.80
2022-12-06T06:35:01.732Z,1.05
2022-12-06T06:37:28.139Z,0.95
2022-12-06T06:39:54.580Z,0.90
2022-12-06T06:42:21.141Z,1.02
2022-12-06T06:44:47.524Z,1.20
2022-12-06T06:47:13.816Z,1.23
2022-12-06T06:49:40.869Z,1.20
2022-12-06T06:52:07.236Z,1.20
2022-12-06T06:54:33.722Z,1.20
2022-12-06T06:57:00.286Z,1.20
2022-12-06T06:59:26.772Z,1.42
2022-12-06T07:01:53.171Z,1.45
2022-12-06T07:04:19.733Z,1.10
2022-12-06T07:06:46.055Z,1.50
2022-12-06T07:09:13.557Z,1.25
2022-12-06T07:11:40.097Z,1.00
2022-12-06T07:14:06.415Z,0.90
2022-12-06T07:16:32.940Z,0.90
2022-12-06T07:18:59.463Z,1.10
2022-12-06T07:21:25.788Z,1.48
2022-12-06T07:23:52.151Z,1.30
2022-12-06T07:26:20.203Z,1.10
2022-12-06T07:28:47.444Z,0.80
2022-12-06T07:31:16.048Z,0.75
2022-12-06T07:33:43.223Z,0.98
2022-12-06T07:36:12.426Z,1.05
2022-12-06T07:38:39.516Z,0.90
2022-12-06T07:41:29.167Z,0.60
2022-12-06T07:44:15.180Z,1.02
2022-12-06T07:46:42.082Z,1.20
2022-12-06T07:49:08.730Z,1.10
2022-12-06T07:51:35.342Z,1.05
2022-12-06T07:54:01.781Z,0.80
2022-12-06T07:56:28.327Z,0.88
2022-12-06T07:58:54.704Z,0.80
2022-12-06T08:01:21.339Z,0.73
2022-12-06T08:03:47.792Z,0.60
2022-12-06T08:06:14.087Z,0.57
2022-12-06T08:08:40.459Z,0.50
2022-12-06T08:11:07.346Z,0.50
2022-12-06T08:13:34.189Z,0.40
2022-12-06T08:16:03.966Z,0.70
2022-12-06T08:18:30.348Z,0.70
2022-12-06T08:20:57.818Z,0.60
2022-12-06T08:23:26.860Z,0.50
2022-12-06T08:26:00.896Z,0.68
2022-12-06T08:28:28.159Z,0.75
2022-12-06T08:30:59.640Z,0.90
2022-12-06T08:33:29.279Z,1.00
2022-12-06T08:35:55.576Z,1.75
2022-12-06T08:38:21.855Z,2.00
2022-12-06T08:40:48.236Z,1.33
2022-12-06T08:43:14.640Z,1.35
2022-12-06T08:45:40.935Z,1.13
2022-12-06T08:48:07.279Z,1.25
2022-12-06T08:50:33.583Z,0.90
2022-12-06T08:52:59.977Z,0.85
2022-12-06T08:55:26.432Z,0.80
2022-12-06T08:57:52.786Z,0.80
2022-12-06T09:00:19.293Z,0.70
2022-12-06T09:02:45.781Z,0.57
2022-12-06T09:05:12.115Z,0.50
2022-12-06T09:07:38.480Z,0.70
2022-12-06T09:10:05.641Z,0.93
2022-12-06T09:12:32.050Z,1.00
2022-12-06T09:14:58.339Z,0.80
2022-12-06T09:17:24.791Z,0.77
2022-12-06T09:19:51.457Z,1.20
2022-12-06T09:22:17.844Z,1.10
2022-12-06T09:24:44.240Z,1.10
2022-12-06T09:27:10.596Z,0.77
2022-12-06T09:29:40.760Z,1.00
2022-12-06T09:32:07.488Z,2.03
2022-12-06T09:34:33.847Z,1.30
2022-12-06T09:37:03.916Z,0.70
2022-12-06T09:39:38.830Z,0.85
2022-12-06T09:42:08.006Z,0.70
2022-12-06T09:44:46.630Z,0.70
2022-12-06T09:47:31.868Z,0.60
2022-12-06T09:50:13.632Z,0.60
2022-12-06T09:52:49.478Z,0.43
2022-12-06T09:55:34.906Z,0.70
2022-12-06T09:58:01.267Z,0.90
2022-12-06T10:00:29.931Z,0.80
2022-12-06T10:03:14.666Z,0.77
2022-12-06T10:05:52.729Z,1.00
2022-12-06T10:08:27.612Z,1.00
2022-12-06T10:10:57.351Z,1.10
2022-12-06T10:13:42.081Z,1.30
2022-12-06T10:16:08.468Z,1.83
2022-12-06T10:18:41.897Z,1.70
2022-12-06T10:21:11.027Z,2.35
2022-12-06T10:23:51.905Z,1.63
2022-12-06T10:26:24.169Z,1.30
2022-12-06T10:29:00.211Z,0.90
2022-12-06T10:31:36.086Z,1.40
2022-12-06T10:34:11.598Z,1.02
2022-12-06T10:36:53.146Z,0.60
2022-12-06T10:39:25.405Z,1.02
2022-12-06T10:41:57.843Z,1.30
2022-12-06T10:44:37.794Z,1.20
2022-12-06T10:47:10.633Z,1.10
2022-12-06T10:49:41.648Z,0.88
2022-12-06T10:52:43.378Z,1.13
2022-12-06T10:55:09.809Z,1.20
2022-12-06T10:57:36.133Z,0.98
2022-12-06T11:00:10.369Z,0.80
2022-12-06T11:02:42.548Z,0.73
2022-12-06T11:05:21.689Z,0.68
2022-12-06T11:07:50.054Z,1.00
2022-12-06T11:10:22.017Z,0.68
2022-12-06T11:12:49.069Z,0.93
2022-12-06T11:15:23.961Z,0.73
2022-12-06T11:17:54.931Z,0.90
2022-12-06T11:20:28.860Z,0.80
2022-12-06T11:23:06.113Z,0.50
2022-12-06T11:25:32.516Z,0.50
2022-12-06T11:28:24.904Z,0.50
2022-12-06T11:33:18.177Z,0.50
2022-12-06T11:35:46.218Z,0.60
2022-12-06T11:38:12.651Z,0.88
2022-12-06T11:40:43.280Z,0.93
2022-12-06T11:43:12.548Z,0.80
2022-12-06T11:45:40.605Z,1.00
2022-12-06T11:48:20.434Z,0.60
2022-12-06T11:50:47.953Z,0.80
2022-12-06T11:53:19.370Z,0.70
2022-12-06T11:55:48.234Z,0.70
2022-12-06T11:58:37.390Z,0.77
2022-12-06T12:01:05.450Z,1.42
2022-12-06T12:03:33.444Z,1.45
2022-12-06T12:06:15.235Z,1.30
2022-12-06T12:08:50.252Z,1.55
2022-12-06T12:11:21.159Z,1.40
2022-12-06T12:13:51.996Z,1.27
2022-12-06T12:16:46.648Z,1.63
2022-12-06T12:19:22.390Z,0.95
2022-12-06T12:21:54.046Z,0.90
2022-12-06T12:24:56.579Z,1.02
2022-12-06T12:27:28.618Z,1.10
2022-12-06T12:30:13.696Z,1.15
2022-12-06T12:32:40.123Z,1.10
2022-12-06T12:35:21.969Z,0.88
2022-12-06T12:37:51.336Z,1.00
2022-12-06T12:40:24.151Z,1.20
2022-12-06T12:42:57.063Z,1.10
2022-12-06T12:45:23.559Z,1.20
2022-12-06T12:48:21.170Z,1.00
2022-12-06T12:50:57.008Z,0.75
2022-12-06T12:53:37.063Z,1.00
2022-12-06T12:56:07.989Z,0.70
2022-12-06T12:58:36.366Z,0.60
2022-12-06T13:01:05.788Z,1.05
2022-12-06T13:03:50.772Z,1.00
2022-12-06T13:06:28.326Z,1.08
2022-12-06T13:08:56.554Z,0.80
2022-12-06T13:11:23.032Z,1.00
2022-12-06T13:13:52.182Z,1.38
2022-12-06T13:16:21.285Z,1.40
2022-12-06T13:18:50.998Z,1.30
2022-12-06T13:21:21.910Z,1.15
2022-12-06T13:23:50.312Z,0.93
2022-12-06T13:26:20.584Z,1.30
2022-12-06T13:28:49.087Z,1.13
2022-12-06T13:31:17.231Z,1.15
2022-12-06T13:33:49.733Z,1.17
2022-12-06T13:36:17.019Z,0.90
2022-12-06T13:38:43.564Z,1.20
2022-12-06T13:41:12.743Z,1.08
2022-12-06T13:43:40.102Z,0.80
2022-12-06T13:46:06.790Z,1.20
2022-12-06T13:48:33.220Z,1.73
2022-12-06T13:51:01.651Z,1.48
2022-12-06T13:53:31.616Z,0.82
2022-12-06T13:56:01.312Z,0.85
2022-12-06T13:58:27.633Z,0.70
2022-12-06T14:00:55.204Z,0.70
2022-12-06T14:03:21.649Z,0.90
2022-12-06T14:06:14.304Z,1.75
2022-12-06T14:08:46.988Z,1.00
2022-12-06T14:11:13.809Z,0.88
2022-12-06T14:13:40.954Z,1.23
2022-12-06T14:16:08.673Z,1.10
2022-12-06T14:18:35.283Z,0.88
2022-12-06T14:21:02.785Z,1.10
2022-12-06T14:23:30.689Z,1.85
2022-12-06T14:26:12.807Z,2.22
2022-12-06T14:28:39.395Z,1.50
2022-12-06T14:31:07.225Z,1.10
2022-12-06T14:33:38.991Z,0.90
2022-12-06T14:36:05.538Z,1.00
2022-12-06T14:38:31.830Z,1.70
2022-12-06T14:41:16.765Z,1.42
2022-12-06T14:43:46.871Z,0.70
2022-12-06T14:46:14.698Z,0.60
2022-12-06T14:49:00.209Z,0.93
2022-12-06T14:51:33.594Z,1.88
2022-12-06T14:54:18.999Z,1.52
2022-12-06T14:56:45.580Z,1.65
2022-12-06T14:59:12.339Z,1.02
2022-12-06T15:01:49.486Z,1.30
2022-12-06T15:04:25.050Z,1.20
2022-12-06T15:06:52.855Z,1.45
2022-12-06T15:09:21.825Z,1.50
2022-12-06T15:12:07.205Z,1.17
2022-12-06T15:14:39.412Z,1.40
2022-12-06T15:17:14.617Z,1.75
2022-12-06T15:19:48.231Z,1.55
2022-12-06T15:22:24.904Z,1.63
2022-12-06T15:24:54.531Z,1.80
2022-12-06T15:27:21.734Z,1.48
2022-12-06T15:29:48.279Z,1.52
2022-12-06T15:32:15.404Z,1.52
2022-12-06T15:34:42.313Z,1.40
2022-12-06T15:37:37.623Z,1.60
2022-12-06T15:39:56.427Z,1.58
2022-12-06T15:42:23.460Z,1.17
2022-12-06T15:44:50.409Z,0.80
2022-12-06T15:47:17.560Z,1.02
2022-12-06T15:49:44.089Z,1.00
2022-12-06T15:52:17.573Z,1.00
2022-12-06T15:54:44.340Z,0.70
2022-12-06T15:57:10.819Z,1.40
2022-12-06T15:59:37.167Z,1.33
2022-12-06T16:02:03.668Z,1.25
2022-12-06T16:04:32.579Z,1.17
2022-12-06T16:06:59.026Z,1.17
2022-12-06T16:09:25.451Z,1.10
2022-12-06T16:11:51.808Z,1.05
2022-12-06T16:14:18.197Z,1.42
2022-12-06T16:16:44.705Z,1.73
2022-12-06T16:19:11.104Z,1.10
2022-12-06T16:21:50.195Z,1.50
2022-12-06T16:24:16.650Z,2.60
2022-12-06T16:26:44.447Z,1.50
2022-12-06T16:29:14.198Z,1.42
2022-12-06T16:31:41.239Z,1.52
2022-12-06T16:34:08.162Z,1.23
2022-12-06T16:36:34.803Z,0.95
2022-12-06T16:39:03.081Z,1.08
2022-12-06T16:41:31.986Z,1.33
2022-12-06T16:43:58.872Z,0.90
2022-12-06T16:46:29.524Z,1.55
2022-12-06T16:49:02.583Z,0.90
2022-12-06T16:51:37.000Z,1.38
2022-12-06T16:54:03.775Z,1.05
2022-12-06T16:56:31.497Z,0.80
2022-12-06T16:58:58.124Z,1.30
2022-12-06T17:01:38.037Z,1.38
2022-12-06T17:04:06.534Z,0.80
2022-12-06T17:06:33.552Z,1.52
2022-12-06T17:08:59.845Z,2.30
2022-12-06T17:11:45.684Z,2.40
2022-12-06T17:14:12.516Z,1.83
2022-12-06T17:16:39.383Z,1.38
2022-12-06T17:19:07.518Z,1.23
2022-12-06T17:21:34.332Z,1.23
2022-12-06T17:24:01.095Z,1.30
2022-12-06T17:26:27.981Z,1.50
2022-12-06T17:28:54.993Z,1.20
2022-12-06T17:31:21.784Z,0.90
2022-12-06T17:33:48.210Z,1.00
2022-12-06T17:36:14.584Z,0.85
2022-12-06T17:38:40.920Z,1.10
2022-12-06T17:41:36.171Z,1.73
2022-12-06T17:44:02.604Z,1.33
2022-12-06T17:46:29.157Z,1.40
2022-12-06T17:48:56.255Z,1.50
2022-12-06T17:51:23.178Z,1.63
2022-12-06T17:53:49.624Z,1.20
2022-12-06T17:56:36.320Z,0.93
2022-12-06T17:59:04.097Z,0.80
2022-12-06T18:01:50.933Z,0.82
2022-12-06T18:04:17.629Z,1.13
2022-12-06T18:06:44.068Z,1.50
2022-12-06T18:09:14.583Z,1.30
2022-12-06T18:11:41.303Z,2.50
2022-12-06T18:14:07.643Z,3.80
2022-12-06T18:16:35.206Z,4.78
2022-12-06T18:19:08.343Z,4.65
2022-12-06T18:21:38.309Z,4.60
2022-12-06T18:24:22.735Z,4.25
2022-12-06T18:26:50.500Z,2.72
2022-12-06T18:29:18.441Z,2.10
2022-12-06T18:31:45.025Z,2.10
2022-12-06T18:34:12.000Z,1.60
2022-12-06T18:36:38.553Z,1.20
2022-12-06T18:39:09.612Z,1.20
2022-12-06T18:41:39.078Z,1.00
2022-12-06T18:44:05.712Z,1.20
2022-12-06T18:46:32.196Z,1.20
2022-12-06T18:48:59.160Z,1.00
2022-12-06T18:51:30.120Z,0.75
2022-12-06T18:53:57.651Z,0.90
2022-12-06T18:56:24.883Z,1.45
2022-12-06T18:58:51.729Z,2.05
2022-12-06T19:01:19.583Z,1.42
2022-12-06T19:03:46.105Z,1.73
2022-12-06T19:06:22.868Z,1.20
2022-12-06T19:08:50.129Z,1.35
2022-12-06T19:11:19.733Z,1.58
2022-12-06T19:13:53.183Z,1.10
2022-12-06T19:16:21.227Z,0.80
2022-12-06T19:18:48.420Z,0.88
2022-12-06T19:21:14.968Z,0.90
2022-12-06T19:23:41.331Z,1.20
2022-12-06T19:26:07.691Z,1.27
2022-12-06T19:28:34.227Z,1.00
2022-12-06T19:31:01.583Z,0.88
2022-12-06T19:33:28.025Z,1.13
2022-12-06T19:36:01.799Z,2.22
2022-12-06T19:38:28.300Z,1.77
2022-12-06T19:40:55.328Z,1.60
2022-12-06T19:43:44.964Z,1.52
2022-12-06T19:46:13.138Z,2.67
2022-12-06T19:48:39.886Z,3.05
2022-12-06T19:51:06.484Z,2.40
2022-12-06T19:53:33.950Z,2.90
2022-12-06T19:56:00.331Z,3.67
2022-12-06T19:58:27.049Z,3.60
2022-12-06T20:00:53.653Z,3.70
2022-12-06T20:03:20.061Z,4.30
2022-12-06T20:05:46.475Z,4.47
2022-12-06T20:08:12.884Z,4.55
2022-12-06T20:10:39.369Z,3.88
2022-12-06T20:13:06.493Z,3.75
2022-12-06T20:15:33.131Z,3.45
2022-12-06T20:17:59.577Z,4.20
2022-12-06T20:20:26.092Z,5.05
2022-12-06T20:22:52.419Z,3.45
2022-12-06T20:25:18.710Z,4.32
2022-12-06T20:27:51.102Z,4.25
2022-12-06T20:30:18.238Z,3.55
2022-12-06T20:32:44.527Z,3.28
2022-12-06T20:35:10.924Z,2.30
2022-12-06T20:37:37.208Z,2.72
2022-12-06T20:40:04.108Z,2.15
2022-12-06T20:42:31.465Z,2.55
2022-12-06T20:44:57.795Z,3.42
2022-12-06T20:47:24.477Z,2.83
2022-12-06T20:49:50.887Z,2.72
2022-12-06T20:52:17.388Z,3.63
2022-12-06T20:54:43.787Z,2.78
2022-12-06T20:57:10.389Z,5.00
2022-12-06T20:59:37.660Z,3.80
2022-12-06T21:02:05.028Z,4.97
2022-12-06T21:04:31.664Z,4.95
2022-12-06T21:06:58.065Z,7.78
2022-12-06T21:09:24.405Z,6.28
2022-12-06T21:11:50.849Z,7.78
2022-12-06T21:14:17.776Z,7.70
2022-12-06T21:16:44.161Z,6.60
2022-12-06T21:19:12.189Z,5.72
2022-12-06T21:21:39.622Z,5.05
2022-12-06T21:24:07.575Z,5.20
2022-12-06T21:26:33.922Z,6.30
2022-12-06T21:29:00.322Z,6.80
2022-12-06T21:31:30.718Z,5.45
2022-12-06T21:33:57.372Z,5.20
2022-12-06T21:36:24.289Z,4.30
2022-12-06T21:38:50.813Z,4.15
2022-12-06T21:41:17.186Z,3.80
2022-12-06T21:43:43.598Z,3.95
2022-12-06T21:46:12.277Z,4.80
2022-12-06T21:48:38.803Z,4.53
2022-12-06T21:51:09.957Z,5.70
2022-12-06T21:53:36.427Z,4.53
2022-12-06T21:56:09.806Z,4.18
2022-12-06T21:58:37.205Z,5.25
2022-12-06T22:01:04.487Z,5.07
2022-12-06T22:03:31.047Z,6.47
2022-12-06T22:05:57.370Z,5.82
2022-12-06T22:08:23.703Z,7.90
2022-12-06T22:10:52.595Z,6.75
2022-12-06T22:13:18.979Z,6.55
2022-12-06T22:15:45.929Z,8.57
2022-12-06T22:18:12.302Z,9.05
2022-12-06T22:20:38.672Z,9.20
2022-12-06T22:23:04.978Z,7.45
2022-12-06T22:25:31.297Z,8.02
2022-12-06T22:27:57.620Z,6.57
2022-12-06T22:30:24.095Z,5.85
2022-12-06T22:32:50.531Z,6.80
2022-12-06T22:35:17.029Z,6.28
2022-12-06T22:37:43.383Z,6.65
2022-12-06T22:40:10.056Z,6.00
2022-12-06T22:42:36.474Z,5.40
2022-12-06T22:45:02.899Z,4.82
2022-12-06T22:47:29.384Z,4.65
2022-12-06T22:49:55.683Z,4.25
2022-12-06T22:52:21.981Z,5.57
2022-12-06T22:54:48.428Z,5.05
2022-12-06T22:57:14.747Z,5.57
2022-12-06T22:59:41.165Z,5.25
2022-12-06T23:02:07.636Z,5.60
2022-12-06T23:04:34.063Z,5.22
2022-12-06T23:07:00.358Z,5.60
2022-12-06T23:09:26.931Z,5.30
2022-12-06T23:11:53.295Z,5.65
2022-12-06T23:14:19.661Z,6.28
2022-12-06T23:16:46.259Z,5.63
2022-12-06T23:19:12.666Z,5.50
2022-12-06T23:21:40.728Z,5.20
2022-12-06T23:24:09.638Z,4.28
2022-12-06T23:26:37.331Z,4.28
2022-12-06T23:29:03.854Z,4.00
2022-12-06T23:31:34.636Z,5.18
2022-12-06T23:34:02.633Z,5.82
2022-12-06T23:36:29.923Z,4.80
2022-12-06T23:38:56.338Z,5.00
2022-12-06T23:41:23.903Z,4.72
2022-12-06T23:43:50.501Z,5.32
2022-12-06T23:46:22.168Z,4.45
2022-12-06T23:48:49.331Z,4.68
2022-12-06T23:51:16.624Z,4.28
2022-12-06T23:53:43.459Z,4.00
2022-12-06T23:56:13.949Z,4.70
2022-12-06T23:58:40.868Z,4.90
